Time;durP1;ratioP1;P1;durP2;ratioP2;P2;SDS_P1;SDS_P2;PMS_P1;PMS_P2;Temp;Humidity;BMP_temperature;BMP_pressure;BME280_temperature;BME280_humidity;BME280_pressure;Samples;Min_cycle;Max_cycle;Signal;HPM_P1;HPM_P2
2021/04/15 00:01:55;;;;;;;9.10;4.63;;;2.40;59.00;;;;;;5029871;28;20079;-69
2021/04/15 00:04:22;;;;;;;6.38;4.18;;;2.40;59.00;;;;;;5030555;28;20083;-69
2021/04/15 00:06:48;;;;;;;7.90;4.18;;;2.40;59.00;;;;;;5029988;28;20022;-69
2021/04/15 00:09:18;;;;;;;8.15;4.60;;;2.40;59.00;;;;;;5030716;28;20044;-69
2021/04/15 00:11:44;;;;;;;9.30;4.20;;;2.30;59.00;;;;;;5029636;28;20084;-69
2021/04/15 00:14:12;;;;;;;7.68;4.40;;;2.30;59.10;;;;;;5027400;28;20034;-69
2021/04/15 00:16:37;;;;;;;6.15;4.25;;;2.30;59.10;;;;;;5029875;28;20032;-69
2021/04/15 00:19:04;;;;;;;6.72;4.35;;;2.20;59.10;;;;;;5027892;28;20022;-69
2021/04/15 00:21:30;;;;;;;6.47;3.78;;;2.20;59.20;;;;;;5029422;28;20029;-69
2021/04/15 00:23:56;;;;;;;6.32;4.32;;;2.20;59.20;;;;;;5027324;28;20040;-69
2021/04/15 00:26:25;;;;;;;7.35;4.32;;;2.10;59.20;;;;;;5030300;28;20523;-68
2021/04/15 00:28:52;;;;;;;8.60;4.35;;;2.10;59.40;;;;;;5037747;28;20398;-69
2021/04/15 00:31:18;;;;;;;9.70;4.13;;;2.10;59.40;;;;;;5024261;28;20030;-69
2021/04/15 00:33:44;;;;;;;8.50;4.10;;;2.10;59.40;;;;;;5027522;28;20033;-69
2021/04/15 00:36:11;;;;;;;9.02;4.38;;;2.10;59.50;;;;;;5032065;28;20044;-69
2021/04/15 00:38:38;;;;;;;9.63;4.57;;;2.00;59.50;;;;;;5028944;28;20021;-69
2021/04/15 00:41:05;;;;;;;8.15;4.07;;;2.00;59.50;;;;;;5029981;28;20385;-68
2021/04/15 00:43:35;;;;;;;7.47;4.45;;;2.00;59.60;;;;;;5025619;28;20075;-69
2021/04/15 00:46:35;;;;;;;7.78;4.50;;;1.90;59.60;;;;;;5030750;28;20036;-69
2021/04/15 00:49:01;;;;;;;9.57;4.40;;;1.90;59.70;;;;;;5031493;28;20029;-70
2021/04/15 00:51:32;;;;;;;7.75;4.28;;;1.90;59.60;;;;;;5029627;28;20453;-69
2021/04/15 00:54:08;;;;;;;6.88;4.20;;;1.90;59.70;;;;;;5027850;28;20555;-68
2021/04/15 00:56:34;;;;;;;7.90;4.43;;;1.90;59.80;;;;;;5036169;28;20036;-69
2021/04/15 00:59:01;;;;;;;8.98;4.57;;;1.80;59.70;;;;;;5031657;28;20029;-69
2021/04/15 01:01:27;;;;;;;7.15;4.38;;;1.80;59.70;;;;;;5028691;28;20056;-69
2021/04/15 01:03:53;;;;;;;6.45;4.35;;;1.80;59.70;;;;;;5022587;28;21973;-69
2021/04/15 01:06:19;;;;;;;8.73;4.70;;;1.80;59.70;;;;;;5032713;28;20037;-69
2021/04/15 01:08:46;;;;;;;6.97;4.50;;;1.80;59.80;;;;;;5029965;28;20112;-69
2021/04/15 01:11:41;;;;;;;7.97;4.43;;;1.70;59.90;;;;;;5032260;28;20501;-69
2021/04/15 01:14:44;;;;;;;7.78;4.53;;;1.70;60.10;;;;;;5026580;28;20037;-69
2021/04/15 01:17:14;;;;;;;6.97;4.32;;;1.70;60.10;;;;;;5030811;28;20037;-69
2021/04/15 01:19:57;;;;;;;8.48;4.30;;;1.70;60.00;;;;;;5028628;28;20389;-69
2021/04/15 01:22:55;;;;;;;6.47;4.47;;;1.60;60.10;;;;;;5031013;28;20030;-69
2021/04/15 01:25:59;;;;;;;9.52;4.68;;;1.60;60.10;;;;;;5025561;28;20017;-69
2021/04/15 01:28:46;;;;;;;7.57;4.60;;;1.60;60.10;;;;;;4996405;28;20072;-69
2021/04/15 01:31:23;;;;;;;7.93;4.45;;;1.60;60.20;;;;;;5029413;28;20462;-70
2021/04/15 01:34:08;;;;;;;5.20;4.20;;;1.50;60.10;;;;;;5027990;28;20116;-69
2021/04/15 01:36:42;;;;;;;5.18;3.97;;;1.50;60.10;;;;;;5028524;28;20033;-69
2021/04/15 01:39:22;;;;;;;7.45;4.35;;;1.50;60.20;;;;;;5018665;28;20055;-69
2021/04/15 01:42:13;;;;;;;5.22;4.18;;;1.40;60.20;;;;;;5026488;28;20029;-69
2021/04/15 01:45:12;;;;;;;8.25;4.82;;;1.40;60.30;;;;;;5028973;28;20057;-69
2021/04/15 01:47:43;;;;;;;8.52;4.30;;;1.40;60.20;;;;;;5021660;28;20061;-69
2021/04/15 01:50:16;;;;;;;7.32;4.72;;;1.40;60.30;;;;;;5021144;28;20030;-69
2021/04/15 01:52:43;;;;;;;7.88;4.22;;;1.30;60.50;;;;;;5043997;28;20494;-69
2021/04/15 01:55:25;;;;;;;5.85;4.50;;;1.30;60.50;;;;;;5024997;28;20375;-69
2021/04/15 01:57:53;;;;;;;5.05;3.80;;;1.30;60.60;;;;;;5027386;28;20041;-69
2021/04/15 02:00:23;;;;;;;8.25;4.40;;;1.40;60.60;;;;;;5041918;28;20021;-69
2021/04/15 02:02:54;;;;;;;5.32;3.90;;;1.30;60.60;;;;;;5020514;28;20497;-68
2021/04/15 02:05:24;;;;;;;9.77;4.28;;;1.30;60.50;;;;;;5026062;28;20510;-69
2021/04/15 02:08:14;;;;;;;7.38;3.92;;;1.30;60.60;;;;;;5028129;28;20032;-69
2021/04/15 02:10:51;;;;;;;6.40;3.92;;;1.30;60.70;;;;;;5028679;28;20074;-69
2021/04/15 02:13:18;;;;;;;7.32;4.80;;;1.40;60.60;;;;;;5027325;28;20037;-69
2021/04/15 02:15:51;;;;;;;7.97;4.00;;;1.40;60.50;;;;;;5025128;28;20030;-69
2021/04/15 02:18:40;;;;;;;6.03;4.55;;;1.30;60.50;;;;;;5033438;28;20029;-69
2021/04/15 02:21:31;;;;;;;8.93;5.13;;;1.30;60.60;;;;;;5030530;28;20033;-69
2021/04/15 02:24:05;;;;;;;8.65;5.00;;;1.30;60.70;;;;;;5004492;28;20037;-69
2021/04/15 02:26:38;;;;;;;6.80;4.78;;;1.20;60.50;;;;;;5033057;28;20216;-69
2021/04/15 02:29:07;;;;;;;9.30;5.32;;;1.20;60.70;;;;;;5029767;28;20052;-69
2021/04/15 02:31:58;;;;;;;11.18;5.32;;;1.20;60.90;;;;;;5037298;28;20445;-69
2021/04/15 02:34:32;;;;;;;7.60;4.65;;;1.20;61.10;;;;;;5028163;28;20034;-69
2021/04/15 02:37:12;;;;;;;7.78;4.85;;;1.20;61.00;;;;;;5031409;28;20030;-69
2021/04/15 02:39:47;;;;;;;8.23;5.22;;;1.10;61.00;;;;;;5032033;28;20049;-69
2021/04/15 02:42:22;;;;;;;12.68;4.85;;;1.00;61.10;;;;;;5034282;28;20033;-69
2021/04/15 02:44:54;;;;;;;6.60;4.72;;;0.90;61.20;;;;;;5021293;28;20116;-69
2021/04/15 02:47:34;;;;;;;8.68;4.97;;;0.80;61.40;;;;;;5036684;28;20390;-69
2021/04/15 02:50:02;;;;;;;8.75;5.10;;;0.80;61.70;;;;;;5013870;28;20041;-69
2021/04/15 02:52:35;;;;;;;7.40;4.68;;;0.90;61.60;;;;;;5030917;28;20030;-69
2021/04/15 02:55:09;;;;;;;7.97;4.90;;;0.90;61.60;;;;;;5038317;28;20056;-69
2021/04/15 02:57:40;;;;;;;8.65;4.95;;;0.90;61.60;;;;;;5034628;28;20772;-69
2021/04/15 03:00:11;;;;;;;8.18;4.30;;;0.80;61.70;;;;;;5031809;28;20103;-69
2021/04/15 03:02:48;;;;;;;9.27;4.88;;;0.90;61.90;;;;;;5033700;28;20353;-69
2021/04/15 03:05:21;;;;;;;5.90;4.45;;;0.90;61.90;;;;;;5031076;28;20025;-69
2021/04/15 03:07:48;;;;;;;7.60;5.18;;;0.90;61.80;;;;;;5031682;28;20052;-69
2021/04/15 03:10:20;;;;;;;7.45;4.70;;;0.90;61.70;;;;;;5023254;28;20025;-69
2021/04/15 03:13:17;;;;;;;12.40;5.20;;;0.90;61.60;;;;;;5036420;28;20048;-71
2021/04/15 03:15:59;;;;;;;9.40;4.88;;;0.80;61.50;;;;;;5012659;28;20033;-69
2021/04/15 03:18:31;;;;;;;8.90;5.00;;;0.80;61.70;;;;;;5032427;28;20072;-69
2021/04/15 03:21:00;;;;;;;;;;;0.70;61.80;;;;;;5031627;28;20037;-69
2021/04/15 03:23:44;;;;;;;6.18;4.47;;;0.70;61.40;;;;;;5024032;28;19913;-72
2021/04/15 03:26:28;;;;;;;9.32;4.32;;;0.70;61.60;;;;;;5018060;28;20017;-69
2021/04/15 03:29:17;;;;;;;8.48;4.90;;;0.70;61.60;;;;;;5031178;28;20112;-69
2021/04/15 03:31:57;;;;;;;11.63;4.90;;;0.70;61.80;;;;;;5028801;28;20408;-69
2021/04/15 03:34:30;;;;;;;11.18;5.50;;;0.70;61.90;;;;;;5033510;28;20033;-69
2021/04/15 03:36:58;;;;;;;6.65;4.68;;;0.70;61.90;;;;;;5033950;28;20029;-68
2021/04/15 03:39:33;;;;;;;8.15;4.53;;;0.80;61.90;;;;;;5041374;28;20029;-69
2021/04/15 03:42:17;;;;;;;7.25;4.32;;;0.80;62.40;;;;;;5032947;28;20076;-68
2021/04/15 03:44:48;;;;;;;7.20;4.25;;;0.80;61.90;;;;;;5028290;28;20120;-69
2021/04/15 03:47:20;;;;;;;7.75;5.00;;;0.70;61.70;;;;;;5028007;28;20033;-69
2021/04/15 03:49:57;;;;;;;7.68;4.60;;;0.70;61.80;;;;;;5041322;28;20049;-69
2021/04/15 03:53:00;;;;;;;8.43;4.45;;;0.70;61.90;;;;;;5028891;28;20087;-69
2021/04/15 03:55:33;;;;;;;6.77;4.07;;;0.70;61.90;;;;;;5074464;22;20048;-84
2021/04/15 03:58:08;;;;;;;4.93;3.88;;;0.70;61.80;;;;;;5077931;28;20354;-86
2021/04/15 04:00:39;;;;;;;14.18;4.38;;;0.70;61.90;;;;;;5075141;28;20494;-86
2021/04/15 04:03:09;;;;;;;9.43;4.63;;;0.70;61.70;;;;;;5065054;28;20049;-84
2021/04/15 04:05:42;;;;;;;8.40;4.63;;;0.60;61.60;;;;;;5085261;28;20050;-84
2021/04/15 04:08:26;;;;;;;12.13;5.15;;;0.40;61.80;;;;;;5071087;28;20025;-84
2021/04/15 04:10:54;;;;;;;8.88;5.15;;;0.40;62.20;;;;;;5088350;28;20025;-84
2021/04/15 04:13:36;;;;;;;8.65;4.80;;;0.40;62.30;;;;;;5079281;28;20038;-85
2021/04/15 04:16:07;;;;;;;8.23;4.63;;;0.40;62.40;;;;;;5071153;28;20439;-85
2021/04/15 04:18:43;;;;;;;8.02;4.45;;;0.50;62.20;;;;;;5070752;28;20082;-84
2021/04/15 04:21:17;;;;;;;9.48;5.60;;;0.50;62.20;;;;;;5075294;28;20124;-84
2021/04/15 04:24:11;;;;;;;7.72;4.82;;;0.40;62.10;;;;;;5074849;28;20080;-85
2021/04/15 04:26:48;;;;;;;10.00;5.30;;;0.40;62.20;;;;;;5071509;28;20020;-85
2021/04/15 04:29:32;;;;;;;7.47;4.95;;;0.40;62.80;;;;;;5072005;28;20059;-83
2021/04/15 04:32:01;;;;;;;9.80;5.50;;;0.40;62.80;;;;;;5075066;28;20024;-84
2021/04/15 04:34:29;;;;;;;10.80;5.93;;;0.40;62.40;;;;;;5075180;28;20028;-85
2021/04/15 04:36:56;;;;;;;23.75;6.18;;;0.30;62.40;;;;;;5076438;28;20522;-85
2021/04/15 04:39:26;;;;;;;12.70;5.05;;;0.40;62.60;;;;;;5077960;28;20023;-85
2021/04/15 04:42:10;;;;;;;6.18;4.50;;;0.40;62.60;;;;;;5077205;28;20105;-84
2021/04/15 04:44:42;;;;;;;7.95;4.72;;;0.40;62.50;;;;;;5072052;28;20032;-85
2021/04/15 04:47:14;;;;;;;8.30;4.60;;;0.50;62.50;;;;;;5077155;28;20040;-85
2021/04/15 04:49:42;;;;;;;;;;;0.50;62.40;;;;;;5070563;28;20027;-86
2021/04/15 04:52:10;;;;;;;11.07;4.70;;;0.60;61.90;;;;;;5074339;28;19943;-86
2021/04/15 04:54:40;;;;;;;7.57;4.88;;;0.60;61.90;;;;;;5069167;28;20029;-85
2021/04/15 04:57:20;;;;;;;9.63;4.50;;;0.70;62.20;;;;;;5069564;28;20071;-86
2021/04/15 04:59:54;;;;;;;7.82;4.55;;;0.70;62.00;;;;;;5070061;28;20021;-86
2021/04/15 05:02:19;;;;;;;8.68;4.95;;;0.80;62.20;;;;;;5067094;28;20070;-86
2021/04/15 05:04:45;;;;;;;7.28;4.78;;;0.80;62.10;;;;;;5069108;28;20439;-86
2021/04/15 05:07:23;;;;;;;12.77;5.13;;;0.90;62.10;;;;;;5071036;28;20039;-86
2021/04/15 05:09:51;;;;;;;11.60;5.07;;;0.90;62.10;;;;;;5070031;28;20052;-86
2021/04/15 05:12:21;;;;;;;10.82;5.38;;;1.00;62.00;;;;;;5070460;28;20040;-86
2021/04/15 05:14:47;;;;;;;12.73;4.88;;;1.00;62.10;;;;;;5068618;28;20115;-86
2021/04/15 05:17:22;;;;;;;6.63;4.65;;;1.00;61.90;;;;;;5065829;28;20062;-86
2021/04/15 05:19:48;;;;;;;11.65;5.97;;;1.00;62.10;;;;;;5068960;28;20047;-86
2021/04/15 05:22:22;;;;;;;12.68;6.25;;;1.10;62.10;;;;;;5070836;28;20046;-86
2021/04/15 05:24:58;;;;;;;13.50;5.10;;;1.20;62.20;;;;;;5069456;28;20031;-86
2021/04/15 05:27:25;;;;;;;7.50;4.60;;;1.20;62.10;;;;;;5070015;28;20052;-87
2021/04/15 05:30:12;;;;;;;9.55;5.32;;;1.30;62.10;;;;;;5070480;28;20025;-86
2021/04/15 05:32:38;;;;;;;10.95;5.38;;;1.30;62.20;;;;;;5057253;28;20020;-85
2021/04/15 05:35:04;;;;;;;8.02;6.63;;;1.40;62.20;;;;;;5070468;28;20496;-86
2021/04/15 05:37:29;;;;;;;11.13;5.05;;;1.50;62.20;;;;;;5070380;28;20111;-86
2021/04/15 05:39:57;;;;;;;8.68;4.60;;;1.50;62.10;;;;;;5069938;28;20544;-85
2021/04/15 05:42:40;;;;;;;12.48;5.03;;;1.50;62.20;;;;;;5068871;28;20071;-86
2021/04/15 05:45:24;;;;;;;8.77;4.40;;;1.60;62.40;;;;;;5051976;28;20121;-86
2021/04/15 05:48:03;;;;;;;6.68;3.80;;;1.70;62.40;;;;;;5065270;28;20556;-86
2021/04/15 05:50:36;;;;;;;9.80;4.40;;;1.70;62.40;;;;;;5051563;28;20079;-86
2021/04/15 05:53:16;;;;;;;8.20;3.92;;;1.70;62.40;;;;;;5070388;28;20116;-86
2021/04/15 05:55:51;;;;;;;6.63;4.03;;;1.70;62.70;;;;;;5071352;28;20422;-86
2021/04/15 05:58:25;;;;;;;5.93;3.75;;;1.80;62.80;;;;;;5072616;28;20024;-86
2021/04/15 06:00:56;;;;;;;5.07;3.95;;;1.90;62.80;;;;;;5074659;28;20032;-85
2021/04/15 06:03:33;;;;;;;6.82;4.40;;;1.90;62.70;;;;;;5073014;28;20060;-86
2021/04/15 06:06:12;;;;;;;6.72;4.25;;;2.00;62.80;;;;;;5072882;28;20400;-86
2021/04/15 06:08:41;;;;;;;5.60;4.30;;;2.10;63.20;;;;;;5073092;28;20017;-86
2021/04/15 06:11:47;;;;;;;8.18;4.97;;;2.20;62.50;;;;;;5073129;28;20111;-86
2021/04/15 06:14:27;;;;;;;9.50;4.43;;;2.20;62.30;;;;;;5071683;28;20039;-85
2021/04/15 06:17:33;;;;;;;7.65;4.70;;;2.20;62.30;;;;;;5073404;28;20114;-86
2021/04/15 06:20:10;;;;;;;6.10;4.13;;;2.10;62.40;;;;;;5073102;28;20127;-86
2021/04/15 06:22:47;;;;;;;9.30;4.93;;;2.10;62.70;;;;;;5073776;28;20051;-85
2021/04/15 06:25:28;;;;;;;7.03;4.57;;;2.20;62.80;;;;;;5070797;28;20024;-86
2021/04/15 06:28:00;;;;;;;10.20;4.60;;;2.20;62.90;;;;;;5074186;28;20024;-86
2021/04/15 06:30:37;;;;;;;7.35;4.25;;;2.30;62.80;;;;;;5075106;28;20035;-86
2021/04/15 06:33:13;;;;;;;9.02;3.50;;;2.50;62.80;;;;;;5076234;28;20033;-86
2021/04/15 06:35:42;;;;;;;5.35;3.20;;;2.70;62.50;;;;;;5073658;28;20020;-86
2021/04/15 06:38:26;;;;;;;6.65;3.38;;;2.90;62.10;;;;;;5074228;28;20024;-86
2021/04/15 06:41:03;;;;;;;6.18;3.05;;;3.10;61.90;;;;;;5071680;28;20032;-86
2021/04/15 06:44:07;;;;;;;10.48;3.50;;;3.20;61.60;;;;;;5072776;28;20085;-86
2021/04/15 06:47:00;;;;;;;6.45;3.45;;;3.40;61.50;;;;;;5054347;28;20026;-87
2021/04/15 06:49:50;;;;;;;6.85;3.90;;;3.50;61.30;;;;;;5054460;28;20549;-87
2021/04/15 06:52:35;;;;;;;9.63;3.50;;;3.70;61.50;;;;;;5067643;28;20028;-88
2021/04/15 06:55:29;;;;;;;7.03;3.33;;;4.00;61.40;;;;;;5069557;28;20108;-87
2021/04/15 06:58:08;;;;;;;8.82;3.63;;;4.30;61.10;;;;;;5069734;28;20076;-88
2021/04/15 07:00:58;;;;;;;6.60;3.50;;;4.50;60.80;;;;;;5072932;28;20154;-88
2021/04/15 07:03:51;;;;;;;6.32;3.22;;;4.90;60.70;;;;;;5072533;28;20028;-86
2021/04/15 07:06:19;;;;;;;5.53;3.75;;;5.20;60.10;;;;;;5070901;28;20480;-87
2021/04/15 07:09:06;;;;;;;6.88;3.70;;;5.50;60.10;;;;;;5070662;28;20033;-86
2021/04/15 07:12:10;;;;;;;4.68;3.47;;;5.70;59.70;;;;;;5067139;28;20028;-86
2021/04/15 07:15:09;;;;;;;6.85;3.92;;;6.00;59.40;;;;;;5054701;28;20123;-86
2021/04/15 07:17:54;;;;;;;6.70;3.70;;;6.30;59.30;;;;;;5068684;28;20024;-87
2021/04/15 07:20:19;;;;;;;5.72;3.75;;;6.50;58.90;;;;;;5071140;28;20059;-86
2021/04/15 07:23:02;;;;;;;5.38;3.13;;;6.80;59.10;;;;;;5071684;28;20528;-86
2021/04/15 07:25:59;;;;;;;5.20;2.83;;;7.20;58.80;;;;;;5062633;28;20025;-87
2021/04/15 07:28:46;;;;;;;4.05;3.05;;;7.50;58.60;;;;;;5045081;28;20364;-87
2021/04/15 07:31:32;;;;;;;6.15;3.25;;;7.80;58.10;;;;;;5071388;28;20086;-87
2021/04/15 07:34:10;;;;;;;5.43;3.58;;;8.10;58.00;;;;;;5069746;28;20033;-87
2021/04/15 07:37:00;;;;;;;5.97;3.95;;;8.40;57.70;;;;;;5071872;28;20021;-87
2021/04/15 07:40:03;;;;;;;3.53;3.22;;;8.60;57.40;;;;;;5066433;28;20055;-87
2021/04/15 07:42:48;;;;;;;;;;;9.00;57.40;;;;;;5069290;28;20028;-88
2021/04/15 07:45:39;;;;;;;3.95;2.75;;;9.20;57.20;;;;;;5070432;28;19919;-88
2021/04/15 07:48:31;;;;;;;5.68;2.65;;;9.50;57.20;;;;;;5072412;28;20477;-87
2021/04/15 07:51:22;;;;;;;4.60;2.72;;;9.80;57.10;;;;;;5070554;28;20020;-86
2021/04/15 07:54:03;;;;;;;3.55;3.10;;;10.10;56.40;;;;;;5077150;28;20490;-88
2021/04/15 07:56:52;;;;;;;4.63;2.63;;;10.30;56.00;;;;;;5070985;28;20055;-87
2021/04/15 07:59:27;;;;;;;3.72;3.05;;;10.50;55.80;;;;;;5062413;28;20025;-88
2021/04/15 08:02:09;;;;;;;3.88;2.58;;;10.80;55.40;;;;;;5069455;28;20038;-87
2021/04/15 08:04:43;;;;;;;2.38;2.17;;;11.00;55.10;;;;;;5064541;28;20032;-87
2021/04/15 08:07:46;;;;;;;4.97;2.60;;;11.20;55.00;;;;;;5071702;28;20607;-85
2021/04/15 08:10:21;;;;;;;;;;;11.50;54.80;;;;;;5070620;28;20047;-84
2021/04/15 08:12:46;;;;;;;4.18;2.63;;;11.70;55.10;;;;;;5075211;28;20264;-86
2021/04/15 08:16:09;;;;;;;5.90;2.67;;;11.70;54.20;;;;;;5068066;28;20030;-86
2021/04/15 08:19:01;;;;;;;3.70;2.80;;;11.80;53.90;;;;;;5009497;28;20037;-87
2021/04/15 08:21:51;;;;;;;42.58;25.48;;;12.00;53.50;;;;;;5066496;28;20025;-87
2021/04/15 08:24:50;;;;;;;5.93;2.72;;;12.30;53.40;;;;;;5068748;28;20033;-87
2021/04/15 08:27:21;;;;;;;4.93;2.85;;;12.70;53.00;;;;;;5039002;28;20504;-87
2021/04/15 08:30:14;;;;;;;3.28;2.40;;;12.90;52.20;;;;;;5066644;28;20024;-87
2021/04/15 08:33:08;;;;;;;3.33;2.53;;;13.10;51.70;;;;;;5068302;28;20127;-86
2021/04/15 08:35:53;;;;;;;2.75;2.33;;;13.50;51.50;;;;;;5069047;28;20039;-87
2021/04/15 08:38:50;;;;;;;5.45;2.53;;;13.70;50.80;;;;;;5068822;28;20111;-87
2021/04/15 08:41:37;;;;;;;3.65;2.40;;;13.90;50.30;;;;;;5070194;28;20044;-86
2021/04/15 08:44:17;;;;;;;3.30;2.55;;;14.30;49.60;;;;;;5069363;28;20408;-86
2021/04/15 08:46:52;;;;;;;6.45;2.95;;;14.50;49.00;;;;;;5070014;28;20066;-87
2021/04/15 08:49:49;;;;;;;3.90;2.67;;;14.70;48.90;;;;;;5070609;28;20021;-86
2021/04/15 08:52:30;;;;;;;3.60;2.40;;;15.10;47.80;;;;;;5070650;28;20023;-87
2021/04/15 08:55:07;;;;;;;5.00;2.38;;;15.50;46.80;;;;;;5068379;28;20492;-87
2021/04/15 08:57:40;;;;;;;4.13;2.33;;;15.20;46.90;;;;;;5070942;28;20025;-86
2021/04/15 09:00:29;;;;;;;5.38;2.53;;;15.20;46.30;;;;;;5069556;28;20029;-87
2021/04/15 09:03:34;;;;;;;4.78;2.20;;;15.90;45.10;;;;;;5071010;28;20401;-86
2021/04/15 09:06:25;;;;;;;4.68;2.25;;;17.10;43.60;;;;;;5030915;28;20025;-87
2021/04/15 09:09:16;;;;;;;5.97;2.63;;;17.90;41.60;;;;;;5070820;28;20113;-87
2021/04/15 09:12:01;;;;;;;2.25;2.05;;;18.50;40.00;;;;;;5070383;28;20016;-86
2021/04/15 09:15:06;;;;;;;2.65;2.00;;;19.20;39.00;;;;;;5068190;28;20032;-87
2021/04/15 09:17:33;;;;;;;3.50;2.15;;;19.50;38.20;;;;;;5047416;28;20056;-86
2021/04/15 09:20:02;;;;;;;3.83;2.25;;;17.80;40.10;;;;;;5069424;28;20025;-87
2021/04/15 09:22:30;;;;;;;3.65;2.30;;;16.50;41.70;;;;;;5070286;28;20079;-87
2021/04/15 09:24:59;;;;;;;3.28;2.13;;;15.60;43.10;;;;;;5053291;28;20029;-87
2021/04/15 09:28:01;;;;;;;2.60;2.20;;;14.70;43.70;;;;;;5070841;28;20032;-86
2021/04/15 09:30:32;;;;;;;2.63;2.20;;;14.20;44.50;;;;;;5068329;28;20024;-87
2021/04/15 09:33:09;;;;;;;3.50;2.17;;;14.90;42.60;;;;;;5073242;28;20052;-87
2021/04/15 09:35:57;;;;;;;3.17;2.33;;;15.00;42.00;;;;;;5073622;28;20438;-86
2021/04/15 09:38:49;;;;;;;2.80;2.10;;;14.10;43.00;;;;;;5073746;28;20032;-86
2021/04/15 09:41:43;;;;;;;5.53;2.20;;;13.10;44.40;;;;;;5058551;28;20036;-86
2021/04/15 09:44:30;;;;;;;2.95;2.15;;;12.50;45.10;;;;;;5072211;28;20024;-87
2021/04/15 09:47:40;;;;;;;3.35;2.30;;;11.80;45.70;;;;;;5073011;28;20033;-86
2021/04/15 09:50:29;;;;;;;3.58;2.00;;;11.60;46.10;;;;;;5073080;28;20021;-86
2021/04/15 09:53:04;;;;;;;3.58;1.55;;;11.10;46.60;;;;;;5073213;28;20021;-86
2021/04/15 09:55:48;;;;;;;4.55;2.38;;;10.60;47.00;;;;;;5071384;28;20056;-86
2021/04/15 09:58:44;;;;;;;3.15;2.30;;;10.10;47.30;;;;;;5072773;28;20024;-86
2021/04/15 10:01:23;;;;;;;4.88;2.17;;;9.80;48.40;;;;;;5074280;28;20027;-86
2021/04/15 10:03:54;;;;;;;3.67;2.47;;;9.70;49.00;;;;;;5072522;28;20034;-85
2021/04/15 10:06:37;;;;;;;4.80;2.47;;;9.70;49.00;;;;;;5072521;28;20032;-86
2021/04/15 10:09:20;;;;;;;4.63;2.50;;;9.70;49.00;;;;;;5072433;28;20117;-86
2021/04/15 10:11:45;;;;;;;;;;;9.60;48.90;;;;;;5073378;28;20025;-86
2021/04/15 10:14:19;;;;;;;4.40;2.30;;;9.60;49.20;;;;;;5073200;28;20674;-86
2021/04/15 10:17:04;;;;;;;3.30;2.35;;;9.50;49.10;;;;;;5071720;28;20051;-86
2021/04/15 10:20:26;;;;;;;2.95;2.40;;;9.60;49.10;;;;;;5071829;28;20454;-86
2021/04/15 10:23:11;;;;;;;4.28;2.55;;;9.70;49.40;;;;;;4982591;28;20113;-85
2021/04/15 10:25:45;;;;;;;3.30;2.67;;;9.70;49.10;;;;;;4990947;28;20588;-85
2021/04/15 10:28:32;;;;;;;4.57;2.70;;;9.80;49.50;;;;;;5045224;28;20040;-87
2021/04/15 10:31:35;;;;;;;3.42;2.42;;;9.90;49.30;;;;;;5069866;28;20083;-87
2021/04/15 10:34:38;;;;;;;3.47;2.67;;;10.10;49.10;;;;;;5066719;28;20028;-87
2021/04/15 10:37:22;;;;;;;3.08;2.38;;;10.30;48.80;;;;;;5072823;28;20063;-86
2021/04/15 10:39:53;;;;;;;5.18;2.72;;;10.30;48.80;;;;;;5054788;28;20028;-87
2021/04/15 10:42:31;;;;;;;3.40;2.30;;;10.30;48.60;;;;;;5072467;28;20108;-86
2021/04/15 10:45:25;;;;;;;3.50;2.10;;;10.20;48.70;;;;;;5069897;28;20032;-86
2021/04/15 10:48:00;;;;;;;3.88;2.00;;;10.30;48.60;;;;;;5063581;28;20035;-87
2021/04/15 10:50:44;;;;;;;2.65;2.08;;;10.50;48.10;;;;;;5070540;28;20512;-88
2021/04/15 10:53:37;;;;;;;2.05;1.85;;;10.80;48.00;;;;;;5060564;28;20032;-87
2021/04/15 10:56:12;;;;;;;3.53;2.10;;;11.10;47.50;;;;;;5063209;28;20043;-88
2021/04/15 10:58:44;;;;;;;4.05;2.10;;;11.50;47.20;;;;;;5072096;28;20039;-88
2021/04/15 11:01:16;;;;;;;;;;;11.60;46.90;;;;;;5072046;28;20056;-87
2021/04/15 11:03:42;;;;;;;4.80;2.08;;;11.60;47.30;;;;;;5069809;28;20019;-88
2021/04/15 11:06:11;;;;;;;4.43;2.20;;;11.40;47.20;;;;;;5072129;28;20056;-88
2021/04/15 11:08:36;;;;;;;3.58;1.70;;;11.30;47.10;;;;;;5070946;28;23443;-87
2021/04/15 11:11:13;;;;;;;1.40;1.30;;;11.20;46.90;;;;;;5082237;28;20009;-86
2021/04/15 11:13:39;;;;;;;2.40;1.70;;;11.00;46.40;;;;;;5088359;28;20051;-86
2021/04/15 11:16:18;;;;;;;4.10;1.98;;;10.90;46.60;;;;;;5079645;28;20062;-86
2021/04/15 11:18:44;;;;;;;1.95;1.85;;;10.90;46.50;;;;;;5089870;28;20160;-86
2021/04/15 11:21:24;;;;;;;3.92;1.98;;;11.00;46.60;;;;;;5082821;28;20468;-87
2021/04/15 11:23:53;;;;;;;2.35;2.08;;;11.00;46.60;;;;;;5074048;28;20028;-88
2021/04/15 11:26:21;;;;;;;2.10;2.00;;;11.20;46.80;;;;;;5074229;28;20020;-88
2021/04/15 11:28:49;;;;;;;4.68;2.40;;;11.40;46.50;;;;;;5073449;28;20094;-83
2021/04/15 11:31:14;;;;;;;5.10;2.30;;;11.60;46.20;;;;;;5058257;28;20031;-85
2021/04/15 11:33:43;;;;;;;3.08;2.25;;;11.80;46.20;;;;;;5075466;28;20087;-86
2021/04/15 11:36:27;;;;;;;3.60;2.40;;;12.10;45.70;;;;;;5080432;28;20388;-86
2021/04/15 11:39:04;;;;;;;3.55;2.08;;;12.20;45.30;;;;;;5075924;28;20028;-85
2021/04/15 11:41:33;;;;;;;3.67;2.35;;;12.40;45.10;;;;;;5073905;28;20082;-86
2021/04/15 11:44:09;;;;;;;3.17;2.28;;;12.40;45.20;;;;;;5070600;28;20082;-86
2021/04/15 11:46:51;;;;;;;4.07;2.00;;;12.40;45.00;;;;;;5070699;28;20435;-86
2021/04/15 11:49:19;;;;;;;3.45;2.38;;;12.20;44.70;;;;;;5070671;28;20023;-86
2021/04/15 11:52:11;;;;;;;2.67;2.03;;;12.00;44.80;;;;;;5072575;28;20021;-85
2021/04/15 11:54:49;;;;;;;3.75;2.42;;;12.00;44.70;;;;;;5051964;28;20035;-85
2021/04/15 11:57:23;;;;;;;3.53;2.20;;;12.00;44.30;;;;;;5067774;28;20028;-85
2021/04/15 12:00:04;;;;;;;4.95;2.33;;;12.10;44.50;;;;;;5069769;28;20058;-85
2021/04/15 12:02:37;;;;;;;2.83;2.20;;;12.10;44.50;;;;;;5070482;28;20050;-85
2021/04/15 12:05:31;;;;;;;3.45;2.08;;;12.20;44.60;;;;;;5068925;28;20032;-85
2021/04/15 12:08:03;;;;;;;4.28;1.88;;;12.00;44.10;;;;;;5068798;28;20043;-84
2021/04/15 12:10:32;;;;;;;2.63;1.90;;;11.70;43.80;;;;;;5068706;28;20404;-85
2021/04/15 12:13:12;;;;;;;2.97;1.80;;;11.40;44.20;;;;;;5068989;28;20107;-85
2021/04/15 12:15:47;;;;;;;2.17;1.85;;;11.30;44.20;;;;;;5067422;28;20465;-84
2021/04/15 12:18:28;;;;;;;1.85;1.63;;;11.20;44.50;;;;;;5070881;28;20098;-86
2021/04/15 12:21:13;;;;;;;4.10;2.25;;;11.20;44.20;;;;;;5069182;28;20028;-86
2021/04/15 12:23:45;;;;;;;2.42;2.10;;;11.10;44.50;;;;;;5069584;28;20032;-85
2021/04/15 12:26:50;;;;;;;4.25;2.50;;;11.00;44.60;;;;;;5067454;28;20480;-84
2021/04/15 12:29:19;;;;;;;3.55;2.42;;;10.80;44.30;;;;;;5063416;28;20025;-86
2021/04/15 12:31:55;;;;;;;2.30;2.10;;;10.60;44.80;;;;;;5071752;28;20060;-86
2021/04/15 12:34:28;;;;;;;2.50;2.30;;;10.50;45.00;;;;;;5068249;28;20031;-85
2021/04/15 12:37:22;;;;;;;3.05;2.70;;;10.40;46.00;;;;;;5069680;28;20033;-86
2021/04/15 12:40:11;;;;;;;3.90;2.20;;;10.40;46.10;;;;;;5065629;28;20060;-86
2021/04/15 12:42:39;;;;;;;3.85;2.00;;;10.40;46.20;;;;;;5069864;28;20028;-86
2021/04/15 12:45:10;;;;;;;3.88;2.05;;;10.50;46.40;;;;;;5068107;28;20036;-86
2021/04/15 12:47:40;;;;;;;4.83;2.30;;;10.40;46.10;;;;;;5070318;28;20123;-84
2021/04/15 12:50:08;;;;;;;1.88;1.70;;;10.30;46.50;;;;;;5070112;28;20752;-84
2021/04/15 12:52:34;;;;;;;4.30;2.13;;;10.20;46.00;;;;;;5069029;28;20480;-86
2021/04/15 12:55:01;;;;;;;3.08;1.80;;;10.10;46.00;;;;;;5047026;28;579923;-85
2021/04/15 12:57:30;;;;;;;2.30;1.90;;;10.10;46.00;;;;;;5069498;28;20397;-85
2021/04/15 12:59:57;;;;;;;2.28;1.90;;;10.20;46.30;;;;;;5070667;28;20043;-86
2021/04/15 13:02:32;;;;;;;2.08;1.60;;;10.50;46.30;;;;;;5070516;28;20089;-85
2021/04/15 13:05:06;;;;;;;2.95;1.65;;;10.80;46.20;;;;;;5068894;28;20034;-85
2021/04/15 13:07:38;;;;;;;1.60;1.50;;;11.10;45.80;;;;;;5070314;28;20032;-85
2021/04/15 13:10:12;;;;;;;2.58;1.70;;;11.30;45.30;;;;;;5070217;28;20028;-85
2021/04/15 13:12:45;;;;;;;5.03;1.45;;;11.60;45.90;;;;;;5070221;28;20498;-85
2021/04/15 13:15:23;;;;;;;1.67;1.58;;;12.00;45.30;;;;;;5068657;28;20020;-85
2021/04/15 13:17:53;;;;;;;2.60;1.65;;;12.30;45.30;;;;;;5068725;28;20052;-86
2021/04/15 13:20:19;;;;;;;1.58;1.48;;;12.70;44.40;;;;;;5069079;28;20020;-85
2021/04/15 13:22:49;;;;;;;2.25;1.55;;;13.00;44.30;;;;;;5071342;28;20082;-87
2021/04/15 13:25:25;;;;;;;5.20;1.55;;;13.40;43.30;;;;;;5066213;28;20112;-86
2021/04/15 13:27:53;;;;;;;2.97;1.60;;;13.50;41.80;;;;;;5066197;28;20028;-85
2021/04/15 13:30:41;;;;;;;3.35;1.42;;;13.40;41.70;;;;;;5061373;28;20123;-85
2021/04/15 13:33:18;;;;;;;3.67;1.67;;;13.10;41.60;;;;;;5060603;28;20078;-85
2021/04/15 13:35:59;;;;;;;2.35;1.50;;;12.60;41.10;;;;;;5068223;28;20146;-84
2021/04/15 13:38:45;;;;;;;3.25;1.80;;;12.00;41.50;;;;;;5072654;28;20062;-85
2021/04/15 13:41:51;;;;;;;2.75;1.80;;;11.70;41.70;;;;;;5056532;28;20024;-84
2021/04/15 13:44:55;;;;;;;2.03;1.75;;;11.40;42.60;;;;;;5067199;28;20025;-84
2021/04/15 13:47:41;;;;;;;5.38;2.13;;;11.20;43.30;;;;;;5070047;28;20027;-84
2021/04/15 13:50:07;;;;;;;2.72;2.05;;;11.10;43.60;;;;;;5069092;28;20155;-85
2021/04/15 13:52:36;;;;;;;3.65;2.10;;;11.00;43.80;;;;;;5068791;28;20558;-84